createdAt,value
2023-12-16T00:07:55.041Z,100232.91
2023-12-16T00:17:59.399Z,100249.00
2023-12-16T00:28:02.265Z,100252.75
2023-12-16T00:38:06.487Z,100223.25
2023-12-16T00:48:09.637Z,100230.34
2023-12-16T00:58:14.178Z,100235.72
2023-12-16T01:08:17.434Z,100234.88
2023-12-16T01:18:21.535Z,100231.13
2023-12-16T01:28:24.507Z,100240.47
2023-12-16T01:38:28.741Z,100256.13
2023-12-16T01:48:32.078Z,100256.69
2023-12-16T01:58:37.051Z,100263.34
2023-12-16T02:08:39.849Z,100280.78
2023-12-16T02:18:44.314Z,100276.94
2023-12-16T02:28:48.534Z,100255.44
2023-12-16T02:38:51.313Z,100270.97
2023-12-16T02:48:55.581Z,100280.81
2023-12-16T02:58:58.569Z,100282.34
2023-12-16T03:09:02.868Z,100283.72
2023-12-16T03:19:05.940Z,100281.78
2023-12-16T03:29:10.205Z,100286.53
2023-12-16T03:39:13.661Z,100283.03
2023-12-16T03:49:17.847Z,100269.19
2023-12-16T03:59:20.664Z,100273.63
2023-12-16T04:09:25.021Z,100260.88
2023-12-16T04:19:27.972Z,100273.91
2023-12-16T04:29:32.406Z,100278.78
2023-12-16T04:39:35.225Z,100283.19
2023-12-16T04:49:39.402Z,100282.50
2023-12-16T04:59:42.298Z,100282.25
2023-12-16T05:09:46.617Z,100279.06
2023-12-16T05:19:49.415Z,100297.50
2023-12-16T05:29:53.564Z,100299.84
2023-12-16T05:39:57.289Z,100312.44
2023-12-16T05:50:01.758Z,100295.69
2023-12-16T06:00:09.654Z,100300.53
2023-12-16T06:10:15.240Z,100321.31
2023-12-16T06:20:18.405Z,100327.28
2023-12-16T06:30:22.616Z,100336.84
2023-12-16T06:40:25.499Z,100320.91
2023-12-16T06:50:29.719Z,100314.13
2023-12-16T07:00:32.520Z,100319.25
2023-12-16T07:10:36.965Z,100328.91
2023-12-16T07:20:39.795Z,100325.75
2023-12-16T07:30:44.092Z,100308.28
2023-12-16T07:40:47.329Z,100316.59
2023-12-16T07:50:54.539Z,100343.19
2023-12-16T08:00:57.482Z,100348.69
2023-12-16T08:11:01.921Z,100366.03
2023-12-16T08:21:05.464Z,100386.28
2023-12-16T08:31:09.797Z,100382.97
2023-12-16T08:41:13.294Z,100389.78
2023-12-16T08:51:17.888Z,100383.13
2023-12-16T09:01:20.990Z,100382.72
2023-12-16T09:11:25.208Z,100409.88
2023-12-16T09:21:28.202Z,100410.03
2023-12-16T09:31:35.108Z,100421.91
2023-12-16T09:41:45.373Z,100421.00
2023-12-16T09:51:49.767Z,100426.53
2023-12-16T10:01:55.422Z,100414.94
2023-12-16T10:12:00.655Z,100411.84
2023-12-16T10:22:06.455Z,100412.34
2023-12-16T10:32:12.834Z,100421.81
2023-12-16T10:42:16.150Z,100428.84
2023-12-16T10:52:22.193Z,100420.75
2023-12-16T11:02:28.344Z,100414.16
2023-12-16T11:12:33.035Z,100403.28
2023-12-16T11:22:47.194Z,100390.50
2023-12-16T11:32:56.236Z,100397.06
2023-12-16T11:43:03.925Z,100390.00
2023-12-16T11:53:09.745Z,100367.50
2023-12-16T12:03:13.157Z,100337.25
2023-12-16T12:13:17.476Z,100335.09
2023-12-16T12:23:20.288Z,100300.25
2023-12-16T12:33:25.182Z,100292.66
2023-12-16T12:43:32.057Z,100284.69
2023-12-16T12:53:37.785Z,100279.25
2023-12-16T13:03:41.756Z,100254.25
2023-12-16T13:13:46.143Z,100247.59
2023-12-16T13:23:49.039Z,100252.75
2023-12-16T13:33:53.578Z,100253.06
2023-12-16T13:43:56.736Z,100251.53
2023-12-16T13:54:01.033Z,100229.53
2023-12-16T14:04:04.668Z,100224.88
2023-12-16T14:14:09.189Z,100226.53
2023-12-16T14:24:12.677Z,100204.06
2023-12-16T14:34:18.330Z,100204.06
2023-12-16T14:44:21.144Z,100204.31
2023-12-16T14:54:25.569Z,100196.25
2023-12-16T15:04:28.356Z,100184.22
2023-12-16T15:14:32.559Z,100181.44
2023-12-16T15:24:35.399Z,100180.44
2023-12-16T15:34:39.722Z,100181.13
2023-12-16T15:44:43.180Z,100168.06
2023-12-16T15:54:47.371Z,100178.53
2023-12-16T16:04:51.316Z,100185.25
2023-12-16T16:14:55.516Z,100185.41
2023-12-16T16:24:59.257Z,100193.53
2023-12-16T16:35:06.953Z,100192.78
2023-12-16T16:45:10.870Z,100197.38
2023-12-16T16:55:15.142Z,100206.13
2023-12-16T17:05:20.473Z,100208.38
2023-12-16T17:15:25.956Z,100208.38
2023-12-16T17:25:28.786Z,100179.00
2023-12-16T17:35:33.861Z,100200.63
2023-12-16T17:45:36.717Z,100216.59
2023-12-16T17:55:42.354Z,100232.09
2023-12-16T18:05:45.291Z,100237.25
2023-12-16T18:15:49.485Z,100254.75
2023-12-16T18:25:54.151Z,100271.81
2023-12-16T18:35:58.313Z,100260.28
2023-12-16T18:46:01.117Z,100267.16
2023-12-16T18:56:07.334Z,100252.72
2023-12-16T19:06:10.757Z,100235.59
2023-12-16T19:16:14.702Z,100234.53
2023-12-16T19:26:17.596Z,100236.47
2023-12-16T19:36:21.759Z,100241.84
2023-12-16T19:46:24.527Z,100236.41
2023-12-16T19:56:29.282Z,100238.22
2023-12-16T20:06:32.102Z,100223.13
2023-12-16T20:16:36.416Z,100222.41
2023-12-16T20:26:39.472Z,100223.47
2023-12-16T20:36:44.020Z,100236.38
2023-12-16T20:46:47.008Z,100231.63
2023-12-16T20:56:51.541Z,100212.88
2023-12-16T21:06:54.676Z,100204.06
2023-12-16T21:16:58.668Z,100225.69
2023-12-16T21:27:01.576Z,100199.47
2023-12-16T21:37:08.057Z,100188.97
2023-12-16T21:47:10.818Z,100183.16
2023-12-16T21:57:15.130Z,100209.63
2023-12-16T22:07:17.950Z,100198.56
2023-12-16T22:17:22.946Z,100211.78
2023-12-16T22:27:25.801Z,100235.25
2023-12-16T22:37:30.109Z,100243.13
2023-12-16T22:47:33.084Z,100249.91
2023-12-16T22:57:37.699Z,100254.63
2023-12-16T23:07:40.874Z,100241.75
2023-12-16T23:17:46.701Z,100237.16
2023-12-16T23:27:49.840Z,100234.69
2023-12-16T23:37:53.991Z,100229.00
2023-12-16T23:47:57.129Z,100214.75
2023-12-16T23:58:01.356Z,100229.88
